Time;durP1;ratioP1;P1;durP2;ratioP2;P2;SDS_P1;SDS_P2;PMS_P1;PMS_P2;Temp;Humidity;BMP_temperature;BMP_pressure;BME280_temperature;BME280_humidity;BME280_pressure;Samples;Min_cycle;Max_cycle;Signal;HPM_P1;HPM_P2
2022/10/14 00:01:03;;;;;;;16.17;12.48;;;16.90;99.90;;;;;;4592622;19;20017;-28
2022/10/14 00:02:53;;;;;;;;;;;16.90;99.90;;;;;;4590922;19;20006;-27
2022/10/14 00:04:25;;;;;;;18.60;13.80;;;16.90;99.90;;;;;;4590966;19;19929;-28
2022/10/14 00:05:56;;;;;;;17.17;12.50;;;16.90;99.90;;;;;;4588360;19;20012;-28
2022/10/14 00:07:27;;;;;;;14.95;12.02;;;16.90;99.90;;;;;;4590349;19;20025;-28
2022/10/14 00:09:00;;;;;;;15.25;11.35;;;16.90;99.90;;;;;;4590525;19;20007;-28
2022/10/14 00:10:31;;;;;;;16.77;12.80;;;16.90;99.90;;;;;;4590201;19;20505;-28
2022/10/14 00:12:02;;;;;;;14.98;11.85;;;16.90;99.90;;;;;;4590311;19;20011;-28
2022/10/14 00:13:33;;;;;;;16.17;12.85;;;16.90;99.90;;;;;;4590426;19;20010;-27
2022/10/14 00:15:05;;;;;;;18.33;13.02;;;16.90;99.90;;;;;;4590682;19;20007;-27
2022/10/14 00:16:38;;;;;;;15.48;11.93;;;16.90;99.90;;;;;;4590278;19;20015;-27
2022/10/14 00:18:09;;;;;;;14.85;12.00;;;16.90;99.90;;;;;;4590143;19;20011;-28
2022/10/14 00:19:40;;;;;;;17.20;13.10;;;16.90;99.90;;;;;;4590432;19;20027;-27
2022/10/14 00:21:11;;;;;;;17.73;12.70;;;16.90;99.90;;;;;;4590590;19;20018;-27
2022/10/14 00:22:43;;;;;;;15.48;12.55;;;16.90;99.90;;;;;;4591134;19;20385;-28
2022/10/14 00:24:15;;;;;;;15.90;13.00;;;16.90;99.90;;;;;;4592390;19;20014;-28
2022/10/14 00:25:46;;;;;;;18.27;12.85;;;16.90;99.90;;;;;;4592387;19;20017;-28
2022/10/14 00:27:17;;;;;;;16.23;12.70;;;16.90;99.90;;;;;;4593139;19;20437;-28
2022/10/14 00:28:49;;;;;;;18.52;13.50;;;16.90;99.90;;;;;;4591733;19;20027;-27
2022/10/14 00:30:20;;;;;;;15.60;13.00;;;16.90;99.90;;;;;;4590972;19;20086;-28
2022/10/14 00:31:52;;;;;;;16.95;14.00;;;16.90;99.90;;;;;;4591551;19;20453;-28
2022/10/14 00:33:24;;;;;;;18.70;13.48;;;16.90;99.90;;;;;;4591350;19;20007;-28
2022/10/14 00:34:55;;;;;;;18.98;12.95;;;16.90;99.90;;;;;;4590641;19;20484;-28
2022/10/14 00:36:26;;;;;;;18.17;12.82;;;16.90;99.90;;;;;;4591828;19;20015;-28
2022/10/14 00:37:58;;;;;;;18.08;12.75;;;16.90;99.90;;;;;;4592220;19;20002;-28
2022/10/14 00:39:29;;;;;;;17.65;14.32;;;16.90;99.90;;;;;;4592097;19;20011;-28
2022/10/14 00:41:00;;;;;;;19.30;13.45;;;16.90;99.90;;;;;;4592140;19;20014;-28
2022/10/14 00:42:32;;;;;;;18.15;13.55;;;16.90;99.90;;;;;;4590602;19;20014;-28
2022/10/14 00:44:27;;;;;;;16.75;12.50;;;16.90;99.90;;;;;;4590238;19;20026;-28
2022/10/14 00:45:58;;;;;;;15.95;12.70;;;16.90;99.90;;;;;;4591945;19;20006;-28
2022/10/14 00:47:30;;;;;;;17.27;14.13;;;16.90;99.90;;;;;;4591377;19;20014;-27
2022/10/14 00:49:11;;;;;;;18.58;14.70;;;16.90;99.90;;;;;;4592056;19;20014;-28
2022/10/14 00:50:44;;;;;;;22.88;16.52;;;16.90;99.90;;;;;;4590898;19;20010;-28
2022/10/14 00:52:19;;;;;;;20.80;15.50;;;16.90;99.90;;;;;;4591016;19;20014;-28
2022/10/14 00:53:51;;;;;;;17.35;14.05;;;16.90;99.90;;;;;;4590352;19;20078;-28
2022/10/14 00:55:22;;;;;;;17.92;13.55;;;16.90;99.90;;;;;;4590748;19;20031;-28
2022/10/14 00:56:53;;;;;;;19.98;14.40;;;16.90;99.90;;;;;;4590979;19;20011;-28
2022/10/14 00:58:24;;;;;;;17.80;13.65;;;16.90;99.90;;;;;;4590579;19;20444;-28
2022/10/14 00:59:59;;;;;;;16.65;13.00;;;16.90;99.90;;;;;;4590287;19;20500;-28
2022/10/14 01:01:30;;;;;;;18.20;13.85;;;16.90;99.90;;;;;;4590304;19;20010;-28
2022/10/14 01:03:06;;;;;;;18.45;15.07;;;16.90;99.90;;;;;;4590769;19;20070;-27
2022/10/14 01:04:38;;;;;;;21.02;15.55;;;16.90;99.90;;;;;;4591416;19;20018;-28
2022/10/14 01:06:24;;;;;;;20.50;15.45;;;16.90;99.90;;;;;;4590053;19;20007;-28
2022/10/14 01:08:00;;;;;;;20.75;15.52;;;16.90;99.90;;;;;;4590262;19;20018;-28
2022/10/14 01:09:49;;;;;;;20.98;15.40;;;16.90;99.90;;;;;;4590207;19;20022;-28
2022/10/14 01:11:33;;;;;;;21.70;16.60;;;16.90;99.90;;;;;;4591750;19;20445;-28
2022/10/14 01:13:07;;;;;;;21.20;17.33;;;16.90;99.90;;;;;;4591995;19;19999;-27
2022/10/14 01:15:09;;;;;;;22.67;17.05;;;16.90;99.90;;;;;;4591093;19;20010;-28
2022/10/14 01:17:09;;;;;;;22.75;16.08;;;16.80;99.90;;;;;;4590995;19;20011;-27
2022/10/14 01:19:05;;;;;;;20.00;16.75;;;16.90;99.90;;;;;;4590152;19;20477;-28
2022/10/14 01:20:50;;;;;;;21.17;16.08;;;16.90;99.90;;;;;;4591177;19;20010;-27
2022/10/14 01:22:25;;;;;;;18.52;14.90;;;16.90;99.90;;;;;;4590188;19;20078;-28
2022/10/14 01:24:04;;;;;;;20.85;14.77;;;16.80;99.90;;;;;;4592266;19;20030;-28
2022/10/14 01:25:44;;;;;;;22.02;15.25;;;16.80;99.90;;;;;;4590910;19;20010;-28
2022/10/14 01:27:40;;;;;;;20.20;14.15;;;16.80;99.90;;;;;;4590776;19;20014;-28
2022/10/14 01:29:36;;;;;;;18.85;15.02;;;16.80;99.90;;;;;;4590857;19;20015;-28
2022/10/14 01:31:09;;;;;;;20.63;14.88;;;16.90;99.90;;;;;;4590668;19;20108;-28
2022/10/14 01:33:22;;;;;;;20.23;15.43;;;16.80;99.90;;;;;;4589622;19;20402;-28
2022/10/14 01:35:07;;;;;;;18.25;14.32;;;16.80;99.90;;;;;;4589095;19;20014;-28
2022/10/14 01:36:50;;;;;;;17.45;14.68;;;16.80;99.90;;;;;;4589474;19;20485;-28
2022/10/14 01:38:30;;;;;;;20.25;14.95;;;16.80;99.90;;;;;;4590328;19;20043;-28
2022/10/14 01:40:04;;;;;;;17.33;14.35;;;16.80;99.90;;;;;;4590751;19;20023;-27
2022/10/14 01:41:40;;;;;;;19.23;15.13;;;16.80;99.90;;;;;;4589179;19;20377;-28
2022/10/14 01:43:12;;;;;;;21.63;14.43;;;16.80;99.90;;;;;;4589547;19;20023;-28
2022/10/14 01:44:44;;;;;;;;;;;16.80;99.90;;;;;;4590532;19;20070;-28
2022/10/14 01:46:15;;;;;;;18.40;14.70;;;16.80;99.90;;;;;;4589528;19;19915;-27
2022/10/14 01:47:50;;;;;;;18.55;14.25;;;16.80;99.90;;;;;;4589389;19;20207;-28
2022/10/14 01:49:44;;;;;;;17.20;13.88;;;16.80;99.90;;;;;;4589387;19;20014;-28
2022/10/14 01:51:19;;;;;;;16.67;13.73;;;16.80;99.90;;;;;;4588201;19;20571;-28
2022/10/14 01:52:55;;;;;;;17.30;14.25;;;16.80;99.90;;;;;;4588750;19;20002;-28
2022/10/14 01:54:31;;;;;;;16.30;13.82;;;16.80;99.90;;;;;;4588272;19;20010;-28
2022/10/14 01:56:02;;;;;;;19.55;15.50;;;16.80;99.90;;;;;;4588026;19;20015;-28
2022/10/14 01:57:34;;;;;;;16.48;14.20;;;16.80;99.90;;;;;;4588272;19;20170;-28
2022/10/14 01:59:05;;;;;;;17.90;14.70;;;16.80;99.90;;;;;;4588269;19;20547;-28
2022/10/14 02:00:37;;;;;;;19.35;15.30;;;16.80;99.90;;;;;;4588330;19;20047;-28
2022/10/14 02:02:09;;;;;;;18.05;13.82;;;16.80;99.90;;;;;;4587256;19;20025;-28
2022/10/14 02:03:44;;;;;;;20.70;14.88;;;16.80;99.90;;;;;;4588033;19;20358;-28
2022/10/14 02:05:25;;;;;;;18.80;14.73;;;16.80;99.90;;;;;;4588575;19;20011;-27
2022/10/14 02:07:30;;;;;;;20.50;14.57;;;16.80;99.90;;;;;;4588028;19;20020;-28
2022/10/14 02:09:28;;;;;;;19.58;15.13;;;16.80;99.90;;;;;;4587815;19;20017;-29
2022/10/14 02:11:14;;;;;;;18.00;14.10;;;16.80;99.90;;;;;;4587931;19;20037;-28
2022/10/14 02:13:03;;;;;;;20.25;14.23;;;16.80;99.90;;;;;;4588022;19;20015;-27
2022/10/14 02:14:38;;;;;;;20.10;15.70;;;16.80;99.90;;;;;;4587913;19;20058;-28
2022/10/14 02:16:16;;;;;;;20.38;16.05;;;16.80;99.90;;;;;;4587764;19;20339;-28
2022/10/14 02:18:16;;;;;;;22.10;14.90;;;16.80;99.90;;;;;;4588184;19;20038;-28
2022/10/14 02:19:52;;;;;;;19.40;15.02;;;16.80;99.90;;;;;;4587525;19;20007;-27
2022/10/14 02:21:36;;;;;;;19.55;15.30;;;16.80;99.90;;;;;;4586781;19;20100;-28
2022/10/14 02:23:14;;;;;;;21.45;15.43;;;16.80;99.90;;;;;;4588215;19;20021;-28
2022/10/14 02:24:49;;;;;;;23.15;15.82;;;16.80;99.90;;;;;;4587561;19;20010;-28
2022/10/14 02:26:20;;;;;;;21.45;16.25;;;16.80;99.90;;;;;;4587871;19;20458;-28
2022/10/14 02:27:52;;;;;;;18.40;15.38;;;16.80;99.90;;;;;;4588052;19;20074;-28
2022/10/14 02:29:23;;;;;;;19.73;16.10;;;16.80;99.90;;;;;;4590440;19;20011;-28
2022/10/14 02:31:04;;;;;;;21.80;16.58;;;16.80;99.90;;;;;;4592652;19;20018;-28
2022/10/14 02:32:35;;;;;;;18.30;15.30;;;16.80;99.90;;;;;;4592210;19;20448;-28
2022/10/14 02:34:09;;;;;;;21.55;15.55;;;16.80;99.90;;;;;;4592876;19;20040;-29
2022/10/14 02:35:40;;;;;;;20.42;15.60;;;16.80;99.90;;;;;;4592554;19;20014;-28
2022/10/14 02:37:12;;;;;;;19.70;16.20;;;16.80;99.90;;;;;;4592326;19;20007;-28
2022/10/14 02:38:43;;;;;;;20.35;16.02;;;16.80;99.90;;;;;;4592087;19;20009;-28
2022/10/14 02:40:17;;;;;;;20.13;15.45;;;16.80;99.90;;;;;;4592207;19;20007;-28
2022/10/14 02:41:48;;;;;;;21.13;15.18;;;16.80;99.90;;;;;;4591496;19;20032;-28
2022/10/14 02:43:19;;;;;;;18.63;15.13;;;16.80;99.90;;;;;;4591986;19;20018;-27
2022/10/14 02:44:59;;;;;;;19.25;15.88;;;16.80;99.90;;;;;;4591788;19;20476;-27
2022/10/14 02:46:31;;;;;;;20.77;15.18;;;16.80;99.90;;;;;;4591844;19;20011;-28
2022/10/14 02:48:02;;;;;;;20.00;16.20;;;16.80;99.90;;;;;;4592172;19;20491;-28
2022/10/14 02:49:33;;;;;;;19.92;15.15;;;16.80;99.90;;;;;;4592395;19;20088;-28
2022/10/14 02:51:04;;;;;;;22.63;17.05;;;16.80;99.90;;;;;;4592108;19;19999;-28
2022/10/14 02:52:35;;;;;;;22.33;18.67;;;16.80;99.90;;;;;;4591706;19;20480;-29
2022/10/14 02:54:08;;;;;;;26.00;21.92;;;16.80;99.90;;;;;;4591924;19;20067;-29
2022/10/14 02:55:39;;;;;;;26.85;22.25;;;16.80;99.90;;;;;;4591965;19;20021;-28
2022/10/14 02:57:10;;;;;;;22.63;18.48;;;16.80;99.90;;;;;;4593425;19;20018;-28
2022/10/14 02:58:41;;;;;;;24.83;20.38;;;16.80;99.90;;;;;;4593860;19;20033;-28
2022/10/14 03:00:13;;;;;;;27.42;21.55;;;16.80;99.90;;;;;;4594050;19;20028;-28
2022/10/14 03:01:45;;;;;;;25.65;21.45;;;16.80;99.90;;;;;;4593732;19;20456;-28
2022/10/14 03:03:16;;;;;;;26.70;19.75;;;16.80;99.90;;;;;;4594275;19;20010;-28
2022/10/14 03:04:47;;;;;;;23.15;19.13;;;16.80;99.90;;;;;;4593822;19;20014;-28
2022/10/14 03:06:18;;;;;;;20.88;18.40;;;16.80;99.90;;;;;;4593770;19;20043;-28
2022/10/14 03:07:49;;;;;;;24.65;17.48;;;16.80;99.90;;;;;;4594271;19;20026;-28
2022/10/14 03:09:20;;;;;;;21.02;17.27;;;16.80;99.90;;;;;;4593663;19;20392;-28
2022/10/14 03:10:52;;;;;;;21.98;17.38;;;16.80;99.90;;;;;;4592907;19;20341;-28
2022/10/14 03:12:24;;;;;;;22.80;17.08;;;16.80;99.90;;;;;;4593340;19;20020;-28
2022/10/14 03:13:55;;;;;;;22.10;17.45;;;16.80;99.90;;;;;;4593084;19;20445;-28
2022/10/14 03:15:26;;;;;;;20.35;17.38;;;16.80;99.90;;;;;;4593241;19;20007;-28
2022/10/14 03:16:57;;;;;;;20.95;16.13;;;16.80;99.90;;;;;;4593973;19;20049;-28
2022/10/14 03:18:28;;;;;;;21.33;15.88;;;16.80;99.90;;;;;;4593678;19;20014;-28
2022/10/14 03:19:59;;;;;;;22.23;16.77;;;16.80;99.90;;;;;;4594403;19;20021;-28
2022/10/14 03:21:30;;;;;;;19.88;15.88;;;16.80;99.90;;;;;;4592652;19;20010;-28
2022/10/14 03:23:02;;;;;;;20.05;16.23;;;16.80;99.90;;;;;;4591893;19;20465;-28
2022/10/14 03:24:33;;;;;;;19.40;14.85;;;16.80;99.90;;;;;;4593726;19;20045;-28
2022/10/14 03:26:04;;;;;;;21.60;17.50;;;16.80;99.90;;;;;;4593827;19;20014;-28
2022/10/14 03:27:35;;;;;;;21.77;16.40;;;16.80;99.90;;;;;;4593407;19;20049;-28
2022/10/14 03:29:06;;;;;;;19.58;16.00;;;16.80;99.90;;;;;;4593768;19;20032;-28
2022/10/14 03:30:38;;;;;;;21.08;16.42;;;16.80;99.90;;;;;;4592530;19;20006;-28
2022/10/14 03:32:09;;;;;;;21.85;16.63;;;16.80;99.90;;;;;;4592786;19;20026;-28
2022/10/14 03:33:40;;;;;;;19.35;16.30;;;16.80;99.90;;;;;;4592109;19;20027;-28
2022/10/14 03:35:11;;;;;;;20.63;15.80;;;16.80;99.90;;;;;;4592233;19;20031;-28
2022/10/14 03:36:42;;;;;;;22.80;16.77;;;16.80;99.90;;;;;;4593083;19;20082;-28
2022/10/14 03:38:14;;;;;;;20.17;16.52;;;16.80;99.90;;;;;;4592330;19;20386;-28
2022/10/14 03:39:45;;;;;;;19.38;17.05;;;16.80;99.90;;;;;;4592308;19;20070;-27
2022/10/14 03:41:16;;;;;;;17.80;15.57;;;16.80;99.90;;;;;;4592005;19;20010;-28
2022/10/14 03:42:47;;;;;;;18.90;16.65;;;16.80;99.90;;;;;;4592433;19;20002;-27
2022/10/14 03:44:18;;;;;;;22.23;16.95;;;16.80;99.90;;;;;;4593057;19;20042;-28
2022/10/14 03:45:49;;;;;;;22.08;15.98;;;16.80;99.90;;;;;;4593458;19;20018;-28
2022/10/14 03:47:21;;;;;;;21.02;16.35;;;16.80;99.90;;;;;;4593624;19;20045;-28
2022/10/14 03:48:52;;;;;;;20.05;16.58;;;16.80;99.90;;;;;;4592928;19;20499;-28
2022/10/14 03:50:23;;;;;;;24.95;19.02;;;16.80;99.90;;;;;;4593177;19;20343;-28
2022/10/14 03:51:54;;;;;;;23.00;17.13;;;16.70;99.90;;;;;;4592665;19;20027;-28
2022/10/14 03:53:25;;;;;;;20.92;16.60;;;16.80;99.90;;;;;;4593862;19;20003;-28
2022/10/14 03:54:57;;;;;;;19.75;16.15;;;16.80;99.90;;;;;;4592774;19;20007;-28
2022/10/14 03:56:28;;;;;;;23.10;16.05;;;16.80;99.90;;;;;;4593223;19;20021;-28
2022/10/14 03:57:59;;;;;;;18.30;16.00;;;16.80;99.90;;;;;;4591705;19;20010;-28
2022/10/14 03:59:30;;;;;;;18.77;16.27;;;16.80;99.90;;;;;;4592943;19;20002;-28
2022/10/14 04:01:01;;;;;;;22.33;18.38;;;16.80;99.90;;;;;;4592919;19;20406;-28
2022/10/14 04:02:32;;;;;;;21.85;18.80;;;16.80;99.90;;;;;;4589480;19;20003;-27
2022/10/14 04:04:03;;;;;;;24.30;17.73;;;16.80;99.90;;;;;;4592546;19;20020;-27
2022/10/14 04:05:35;;;;;;;23.00;17.60;;;16.70;99.90;;;;;;4593015;19;20489;-27
2022/10/14 04:07:07;;;;;;;23.10;16.77;;;16.80;99.90;;;;;;4592993;19;20268;-28
2022/10/14 04:08:38;;;;;;;21.73;17.35;;;16.80;99.90;;;;;;4591598;19;20022;-27
2022/10/14 04:10:09;;;;;;;21.33;16.92;;;16.80;99.90;;;;;;4593629;19;20486;-27
2022/10/14 04:11:40;;;;;;;19.23;17.00;;;16.80;99.90;;;;;;4593327;19;20758;-28
2022/10/14 04:13:11;;;;;;;24.25;18.80;;;16.70;99.90;;;;;;4593130;19;20455;-28
2022/10/14 04:14:42;;;;;;;22.13;17.38;;;16.80;99.90;;;;;;4592395;19;20412;-28
2022/10/14 04:16:14;;;;;;;;;;;16.70;99.90;;;;;;4591969;19;20007;-28
2022/10/14 04:17:45;;;;;;;24.60;17.75;;;16.70;99.90;;;;;;4591539;19;20337;-27
2022/10/14 04:19:17;;;;;;;23.90;19.63;;;16.70;99.90;;;;;;4590231;19;20090;-27
2022/10/14 04:20:48;;;;;;;25.33;21.08;;;16.80;99.90;;;;;;4590171;19;20018;-27
2022/10/14 04:22:21;;;;;;;24.92;19.02;;;16.80;99.90;;;;;;4588756;19;20100;-27
2022/10/14 04:23:53;;;;;;;24.13;18.90;;;16.80;99.90;;;;;;4591416;19;20504;-27
2022/10/14 04:25:24;;;;;;;24.10;19.65;;;16.70;99.90;;;;;;4590741;19;20018;-26
2022/10/14 04:26:55;;;;;;;25.52;20.25;;;16.70;99.90;;;;;;4592931;19;20011;-27
2022/10/14 04:28:26;;;;;;;22.77;19.65;;;16.70;99.90;;;;;;4589612;19;20014;-26
2022/10/14 04:29:57;;;;;;;23.02;19.90;;;16.80;99.90;;;;;;4590210;19;20011;-27
2022/10/14 04:31:29;;;;;;;25.08;20.05;;;16.80;99.90;;;;;;4589463;19;20011;-27
2022/10/14 04:33:00;;;;;;;24.73;19.73;;;16.90;99.90;;;;;;4591729;19;20077;-27
2022/10/14 04:34:32;;;;;;;23.42;18.45;;;16.90;99.90;;;;;;4590244;19;20010;-27
2022/10/14 04:36:04;;;;;;;25.38;18.73;;;17.00;99.90;;;;;;4590375;19;20010;-27
2022/10/14 04:37:36;;;;;;;24.63;20.65;;;17.00;99.90;;;;;;4591925;19;20364;-27
2022/10/14 04:39:07;;;;;;;22.38;18.77;;;17.00;99.90;;;;;;4591984;19;20014;-27
2022/10/14 04:40:38;;;;;;;21.85;19.48;;;17.00;99.90;;;;;;4591971;19;20018;-26
2022/10/14 04:42:09;;;;;;;23.73;19.13;;;17.00;99.90;;;;;;4591195;19;20014;-27
2022/10/14 04:43:40;;;;;;;22.33;19.15;;;17.00;99.90;;;;;;4591081;19;20007;-27
2022/10/14 04:45:11;;;;;;;24.58;18.98;;;17.00;99.90;;;;;;4590857;19;20010;-25
2022/10/14 04:46:42;;;;;;;23.88;20.65;;;17.00;99.90;;;;;;4587967;19;20689;-27
2022/10/14 04:48:14;;;;;;;27.50;24.60;;;16.40;99.90;;;;;;4589004;19;20018;-27
2022/10/14 04:49:45;;;;;;;29.27;25.15;;;14.60;99.90;;;;;;4590125;19;20495;-26
2022/10/14 04:51:17;;;;;;;28.40;24.73;;;13.70;99.90;;;;;;4591827;19;20019;-26
2022/10/14 04:52:48;;;;;;;31.20;25.80;;;13.20;99.90;;;;;;4591919;19;20476;-26
2022/10/14 04:54:20;;;;;;;27.05;23.77;;;12.90;99.90;;;;;;4591941;19;20031;-26
2022/10/14 04:55:51;;;;;;;29.70;25.50;;;12.80;99.90;;;;;;4591772;19;20014;-26
2022/10/14 04:57:22;;;;;;;29.23;25.85;;;12.80;99.90;;;;;;4590969;19;20046;-26
2022/10/14 04:58:54;;;;;;;27.50;23.02;;;12.70;99.90;;;;;;4590662;19;20010;-26
2022/10/14 05:00:26;;;;;;;24.63;21.93;;;12.60;99.90;;;;;;4589540;19;20002;-26
2022/10/14 05:01:58;;;;;;;27.52;23.70;;;12.60;99.90;;;;;;4589127;19;21080;-26
2022/10/14 05:03:29;;;;;;;29.03;23.97;;;12.60;99.90;;;;;;4588509;19;20014;-27
2022/10/14 05:05:00;;;;;;;28.77;24.77;;;12.50;99.90;;;;;;4589804;19;20421;-26
2022/10/14 05:06:32;;;;;;;30.27;25.33;;;12.50;99.90;;;;;;4592647;19;20043;-26
2022/10/14 05:08:03;;;;;;;30.20;24.27;;;12.50;99.90;;;;;;4590435;19;20010;-26
2022/10/14 05:09:35;;;;;;;29.90;24.90;;;12.40;99.90;;;;;;4589929;19;20018;-26
2022/10/14 05:11:06;;;;;;;31.48;24.42;;;12.40;99.90;;;;;;4590408;19;20022;-26
2022/10/14 05:12:38;;;;;;;30.73;26.00;;;12.40;99.90;;;;;;4590724;19;20014;-26
2022/10/14 05:14:09;;;;;;;28.75;24.40;;;12.40;99.90;;;;;;4590789;19;20482;-26
2022/10/14 05:15:40;;;;;;;29.05;25.95;;;12.30;99.90;;;;;;4590302;19;20476;-26
2022/10/14 05:17:11;;;;;;;30.42;25.48;;;12.30;99.90;;;;;;4590070;19;20066;-26
2022/10/14 05:18:42;;;;;;;29.48;25.90;;;12.30;99.90;;;;;;4589554;19;20035;-25
2022/10/14 05:20:13;;;;;;;31.30;27.83;;;12.30;99.90;;;;;;4589462;19;20006;-26
2022/10/14 05:21:44;;;;;;;31.70;26.33;;;12.20;99.90;;;;;;4591082;19;20039;-26
2022/10/14 05:23:16;;;;;;;32.58;27.35;;;12.30;99.90;;;;;;4591254;19;20018;-26
2022/10/14 05:24:48;;;;;;;34.83;29.63;;;12.20;99.90;;;;;;4591187;19;20485;-26
2022/10/14 05:26:19;;;;;;;29.40;26.27;;;12.20;99.90;;;;;;4588146;19;20006;-26
2022/10/14 05:27:51;;;;;;;34.55;28.67;;;12.20;99.90;;;;;;4589891;19;20027;-25
2022/10/14 05:29:22;;;;;;;32.03;27.87;;;12.20;99.90;;;;;;4589265;19;20013;-26
2022/10/14 05:30:54;;;;;;;32.53;27.70;;;12.20;99.90;;;;;;4589299;19;20449;-26
2022/10/14 05:32:25;;;;;;;31.17;26.58;;;12.20;99.90;;;;;;4589515;19;20374;-27
2022/10/14 05:33:56;;;;;;;31.65;27.73;;;12.20;99.90;;;;;;4590006;19;20030;-26
2022/10/14 05:35:27;;;;;;;32.30;28.38;;;12.20;99.90;;;;;;4590452;19;20015;-26
2022/10/14 05:36:59;;;;;;;34.45;28.85;;;12.20;99.90;;;;;;4590151;19;20372;-26
2022/10/14 05:38:33;;;;;;;32.85;28.52;;;12.20;99.90;;;;;;4590013;19;20007;-26
2022/10/14 05:40:04;;;;;;;35.77;30.03;;;12.20;99.90;;;;;;4589372;19;20453;-26
2022/10/14 05:41:36;;;;;;;35.42;31.27;;;12.20;99.90;;;;;;4589376;19;20444;-26
2022/10/14 05:43:08;;;;;;;36.03;31.50;;;12.20;99.90;;;;;;4588808;19;20021;-26
2022/10/14 05:44:39;;;;;;;36.92;32.60;;;12.20;99.90;;;;;;4587589;19;20839;-26
2022/10/14 05:46:10;;;;;;;35.42;31.48;;;12.20;99.90;;;;;;4590876;19;20497;-26
2022/10/14 05:47:44;;;;;;;36.47;31.40;;;12.20;99.90;;;;;;4589898;19;20089;-26
2022/10/14 05:49:16;;;;;;;35.70;31.50;;;12.20;99.90;;;;;;4589890;19;20027;-26
2022/10/14 05:50:47;;;;;;;36.80;31.63;;;12.20;99.90;;;;;;4589665;19;20811;-26
2022/10/14 05:52:18;;;;;;;39.03;33.42;;;12.20;99.90;;;;;;4589926;19;20006;-26
2022/10/14 05:53:49;;;;;;;35.88;31.15;;;12.30;99.90;;;;;;4588435;19;20051;-26
2022/10/14 05:55:20;;;;;;;36.53;32.58;;;12.30;99.90;;;;;;4588646;19;20354;-26
2022/10/14 05:56:51;;;;;;;36.60;31.80;;;12.30;99.90;;;;;;4587163;19;20013;-25
2022/10/14 05:58:22;;;;;;;34.60;30.30;;;12.30;99.90;;;;;;4588506;19;20025;-26
2022/10/14 05:59:54;;;;;;;35.30;31.23;;;12.30;99.90;;;;;;4588529;19;20397;-26
2022/10/14 06:01:25;;;;;;;38.42;33.40;;;12.30;99.90;;;;;;4591287;19;20011;-26
2022/10/14 06:02:57;;;;;;;35.40;31.60;;;12.30;99.90;;;;;;4588390;19;20014;-26
2022/10/14 06:04:28;;;;;;;34.93;31.13;;;12.30;99.90;;;;;;4589093;19;20018;-26
2022/10/14 06:05:59;;;;;;;41.40;34.28;;;12.30;99.90;;;;;;4589527;19;20531;-26
2022/10/14 06:07:31;;;;;;;44.13;36.42;;;12.30;99.90;;;;;;4588576;19;20018;-26
2022/10/14 06:09:02;;;;;;;42.80;34.88;;;12.40;99.90;;;;;;4587713;19;20011;-26
2022/10/14 06:10:34;;;;;;;40.22;32.70;;;12.40;99.90;;;;;;4588211;19;20021;-26
2022/10/14 06:12:05;;;;;;;42.90;36.27;;;12.40;99.90;;;;;;4587450;19;20078;-27
2022/10/14 06:13:36;;;;;;;;;;;12.40;99.90;;;;;;4589104;19;20097;-27
2022/10/14 06:15:08;;;;;;;43.67;34.60;;;12.40;99.90;;;;;;4591269;19;19929;-26
2022/10/14 06:16:39;;;;;;;43.15;36.85;;;12.40;99.90;;;;;;4590698;19;20006;-26
2022/10/14 06:18:10;;;;;;;34.70;30.95;;;12.40;99.90;;;;;;4590098;19;20018;-26
2022/10/14 06:19:41;;;;;;;34.83;29.17;;;12.40;99.90;;;;;;4590008;19;20405;-26
2022/10/14 06:21:12;;;;;;;33.78;29.25;;;12.40;99.90;;;;;;4588182;19;20078;-26
2022/10/14 06:22:44;;;;;;;32.67;28.73;;;12.50;99.90;;;;;;4587777;19;20081;-27
2022/10/14 06:24:15;;;;;;;;;;;12.40;99.90;;;;;;4590263;19;20464;-26
2022/10/14 06:25:46;;;;;;;35.33;30.13;;;12.40;99.90;;;;;;4588306;19;20005;-26
2022/10/14 06:27:17;;;;;;;34.90;30.85;;;12.50;99.90;;;;;;4588077;19;20441;-26
2022/10/14 06:28:49;;;;;;;35.78;31.88;;;12.50;99.90;;;;;;4587994;19;20026;-26
2022/10/14 06:30:20;;;;;;;37.28;30.25;;;12.50;99.90;;;;;;4590472;19;20743;-26
2022/10/14 06:31:52;;;;;;;34.35;30.55;;;12.50;99.90;;;;;;4590636;19;20486;-26
2022/10/14 06:33:23;;;;;;;38.35;33.83;;;12.50;99.90;;;;;;4589536;19;20026;-26
2022/10/14 06:34:54;;;;;;;37.75;32.47;;;12.50;99.90;;;;;;4588667;19;20002;-26
2022/10/14 06:36:25;;;;;;;36.08;32.20;;;12.50;99.90;;;;;;4587379;19;20002;-26
2022/10/14 06:37:57;;;;;;;;;;;12.60;99.90;;;;;;4587646;19;20015;-25
2022/10/14 06:39:28;;;;;;;40.40;35.00;;;12.60;99.90;;;;;;4587243;19;19926;-26
2022/10/14 06:40:59;;;;;;;39.92;33.40;;;12.60;99.90;;;;;;4590389;19;20022;-25
2022/10/14 06:42:32;;;;;;;37.33;33.20;;;12.60;99.90;;;;;;4589074;19;20074;-25
2022/10/14 06:44:04;;;;;;;43.10;36.10;;;12.60;99.90;;;;;;4588553;19;20060;-26
2022/10/14 06:45:35;;;;;;;40.13;34.13;;;12.60;99.90;;;;;;4588883;19;20014;-25
2022/10/14 06:47:06;;;;;;;36.10;31.73;;;12.60;99.90;;;;;;4588845;19;20017;-25
2022/10/14 06:48:37;;;;;;;35.20;31.30;;;12.60;99.90;;;;;;4588926;19;20014;-25
2022/10/14 06:50:09;;;;;;;37.40;32.30;;;12.60;99.90;;;;;;4588024;19;20022;-26
2022/10/14 06:51:40;;;;;;;53.00;38.85;;;12.70;99.90;;;;;;4586292;19;20017;-25
2022/10/14 06:53:11;;;;;;;61.05;44.63;;;12.70;99.90;;;;;;4587807;19;20010;-26
2022/10/14 06:54:42;;;;;;;61.17;45.38;;;12.70;99.90;;;;;;4589282;19;20392;-26
2022/10/14 06:56:13;;;;;;;54.13;41.47;;;12.70;99.90;;;;;;4589506;19;20030;-25
2022/10/14 06:57:44;;;;;;;49.22;40.40;;;12.70;99.90;;;;;;4589670;19;20013;-25
2022/10/14 06:59:15;;;;;;;51.63;42.65;;;12.70;99.90;;;;;;4588295;19;20002;-25
2022/10/14 07:00:46;;;;;;;52.10;41.40;;;12.70;99.90;;;;;;4587538;19;20010;-25
2022/10/14 07:02:18;;;;;;;54.22;42.70;;;12.80;99.90;;;;;;4587486;19;20039;-26
2022/10/14 07:03:49;;;;;;;47.83;39.75;;;12.80;99.90;;;;;;4587924;19;20457;-25
2022/10/14 07:05:20;;;;;;;43.97;36.30;;;12.80;99.90;;;;;;4588022;19;20013;-26
2022/10/14 07:06:51;;;;;;;45.95;36.83;;;12.80;99.90;;;;;;4587541;19;20017;-26
2022/10/14 07:08:22;;;;;;;50.63;41.70;;;12.80;99.90;;;;;;4587558;19;20078;-25
2022/10/14 07:09:54;;;;;;;48.50;39.03;;;12.80;99.90;;;;;;4589817;19;20033;-25
2022/10/14 07:11:25;;;;;;;41.80;35.63;;;12.80;99.90;;;;;;4588449;19;20014;-25
2022/10/14 07:12:57;;;;;;;48.95;38.60;;;12.80;99.90;;;;;;4588021;19;20049;-26
2022/10/14 07:14:28;;;;;;;41.43;34.87;;;12.80;99.90;;;;;;4588805;19;20015;-26
2022/10/14 07:15:59;;;;;;;41.03;34.30;;;12.80;99.90;;;;;;4593269;19;20006;-25
2022/10/14 07:17:30;;;;;;;40.67;34.50;;;12.80;99.90;;;;;;4592633;19;20090;-26
2022/10/14 07:19:02;;;;;;;42.45;34.40;;;12.80;99.90;;;;;;4592241;19;20010;-25
2022/10/14 07:20:33;;;;;;;39.03;32.73;;;12.90;99.90;;;;;;4591592;19;20017;-25
2022/10/14 07:22:05;;;;;;;41.33;36.03;;;12.90;99.90;;;;;;4588164;19;20377;-26
2022/10/14 07:23:36;;;;;;;46.10;39.42;;;12.90;99.90;;;;;;4593158;19;20036;-27
2022/10/14 07:25:07;;;;;;;45.88;37.30;;;12.90;99.90;;;;;;4593370;19;20011;-27
2022/10/14 07:26:38;;;;;;;;;;;12.90;99.90;;;;;;4594524;19;20014;-26
2022/10/14 07:28:09;;;;;;;41.33;35.47;;;12.90;99.90;;;;;;4592443;19;19923;-27
2022/10/14 07:29:41;;;;;;;39.97;33.72;;;12.90;99.90;;;;;;4593341;19;20369;-27
2022/10/14 07:31:12;;;;;;;41.78;33.80;;;12.90;99.90;;;;;;4591696;19;20078;-25
2022/10/14 07:32:44;;;;;;;40.77;34.37;;;13.00;99.90;;;;;;4593134;19;20014;-27
2022/10/14 07:34:17;;;;;;;41.63;35.73;;;12.90;99.90;;;;;;4593201;19;20013;-27
2022/10/14 07:35:48;;;;;;;41.92;35.03;;;13.00;99.90;;;;;;4593177;19;20010;-26
2022/10/14 07:37:19;;;;;;;42.58;34.75;;;13.00;99.90;;;;;;4592917;19;20031;-26
2022/10/14 07:38:51;;;;;;;41.83;35.03;;;13.00;99.90;;;;;;4591695;19;20014;-27
2022/10/14 07:40:22;;;;;;;40.92;34.13;;;13.00;99.90;;;;;;4591172;19;20011;-25
2022/10/14 07:41:53;;;;;;;41.63;32.50;;;13.00;99.90;;;;;;4590862;19;20078;-25
2022/10/14 07:43:24;;;;;;;38.45;33.60;;;13.00;99.90;;;;;;4589889;19;20038;-26
2022/10/14 07:44:56;;;;;;;40.33;33.47;;;13.00;99.90;;;;;;4591163;19;20331;-26
2022/10/14 07:46:30;;;;;;;42.63;35.10;;;13.00;99.90;;;;;;4593568;19;20105;-26
2022/10/14 07:48:01;;;;;;;42.60;34.77;;;13.10;99.90;;;;;;4587107;19;20102;-26
2022/10/14 07:49:33;;;;;;;42.88;36.00;;;13.10;99.90;;;;;;4577790;19;20334;-27
2022/10/14 07:51:06;;;;;;;38.60;32.17;;;13.00;99.90;;;;;;4584449;19;20499;-27
2022/10/14 07:52:37;;;;;;;38.20;31.73;;;13.10;99.90;;;;;;4589813;19;20018;-27
2022/10/14 07:54:12;;;;;;;40.13;33.85;;;13.10;99.90;;;;;;4592097;19;20011;-26